Terminal Aerodrome Forecast
Issued by NWS Charleston, WV

Current Version | Previous Version | Text Only | Print | Product List | Glossary Off
Versions: 1 2 3 4 5 6 7 8 9 10 11 12 13 14 15 16 17 18 19 20 21 22 23 24

000
FTUS41 KRLX 141100
TAFHTS
TAF
KHTS 141120Z 1412/1512 07005KT 1/4SM FG VV001
     FM141300 07004KT 3SM BR SCT002
     FM141400 VRB03KT P6SM FEW035
     FM150500 VRB03KT 4SM BR SCT045
     FM150600 VRB03KT 2SM BR SCT045
     FM151000 VRB03KT 3/4SM BR FEW001
     FM151100 VRB03KT 1/2SM FG VV001=

USA.gov is the U.S. government's official web portal to all federal, state and local government web resources and services.